sensor_id;sensor_type;location;lat;lon;timestamp;P1;durP1;ratioP1;P2;durP2;ratioP2
62102;SDS011;48077;48.104;11.702;2023-04-12T00:02:01;48.47;;;44.80;;
62102;SDS011;48077;48.104;11.702;2023-04-12T00:07:40;63.15;;;58.17;;
62102;SDS011;48077;48.104;11.702;2023-04-12T00:10:11;61.67;;;56.78;;
62102;SDS011;48077;48.104;11.702;2023-04-12T00:12:34;57.75;;;53.30;;
62102;SDS011;48077;48.104;11.702;2023-04-12T00:14:58;58.55;;;54.03;;
62102;SDS011;48077;48.104;11.702;2023-04-12T00:17:23;55.58;;;51.28;;
62102;SDS011;48077;48.104;11.702;2023-04-12T00:19:47;52.10;;;48.22;;
62102;SDS011;48077;48.104;11.702;2023-04-12T00:22:13;54.70;;;50.30;;
62102;SDS011;48077;48.104;11.702;2023-04-12T00:24:37;54.05;;;49.85;;
62102;SDS011;48077;48.104;11.702;2023-04-12T00:27:02;51.92;;;47.97;;
62102;SDS011;48077;48.104;11.702;2023-04-12T00:29:25;53.30;;;49.33;;
62102;SDS011;48077;48.104;11.702;2023-04-12T00:31:49;49.90;;;46.22;;
62102;SDS011;48077;48.104;11.702;2023-04-12T00:34:13;51.13;;;47.08;;
62102;SDS011;48077;48.104;11.702;2023-04-12T00:36:36;51.53;;;47.55;;
62102;SDS011;48077;48.104;11.702;2023-04-12T00:38:59;49.90;;;46.13;;
62102;SDS011;48077;48.104;11.702;2023-04-12T00:41:24;49.35;;;45.70;;
62102;SDS011;48077;48.104;11.702;2023-04-12T00:43:50;50.42;;;46.53;;
62102;SDS011;48077;48.104;11.702;2023-04-12T00:46:13;51.67;;;47.75;;
62102;SDS011;48077;48.104;11.702;2023-04-12T00:48:39;47.50;;;44.00;;
62102;SDS011;48077;48.104;11.702;2023-04-12T00:51:02;47.53;;;43.92;;
62102;SDS011;48077;48.104;11.702;2023-04-12T00:53:28;52.03;;;48.05;;
62102;SDS011;48077;48.104;11.702;2023-04-12T00:55:53;46.75;;;43.35;;
62102;SDS011;48077;48.104;11.702;2023-04-12T00:58:17;49.35;;;45.55;;
62102;SDS011;48077;48.104;11.702;2023-04-12T01:00:42;47.08;;;43.53;;
62102;SDS011;48077;48.104;11.702;2023-04-12T01:03:12;47.75;;;44.22;;
62102;SDS011;48077;48.104;11.702;2023-04-12T01:05:40;46.70;;;43.25;;
62102;SDS011;48077;48.104;11.702;2023-04-12T01:08:29;48.95;;;45.35;;
62102;SDS011;48077;48.104;11.702;2023-04-12T01:11:12;52.88;;;48.75;;
62102;SDS011;48077;48.104;11.702;2023-04-12T01:13:55;58.63;;;54.03;;
62102;SDS011;48077;48.104;11.702;2023-04-12T01:27:27;55.42;;;51.20;;
62102;SDS011;48077;48.104;11.702;2023-04-12T01:30:02;54.33;;;50.15;;
62102;SDS011;48077;48.104;11.702;2023-04-12T01:32:29;50.10;;;46.38;;
62102;SDS011;48077;48.104;11.702;2023-04-12T01:34:54;48.33;;;44.83;;
62102;SDS011;48077;48.104;11.702;2023-04-12T01:37:20;49.00;;;45.05;;
62102;SDS011;48077;48.104;11.702;2023-04-12T01:39:45;47.78;;;43.95;;
62102;SDS011;48077;48.104;11.702;2023-04-12T01:42:08;47.97;;;44.28;;
62102;SDS011;48077;48.104;11.702;2023-04-12T01:44:32;44.95;;;41.55;;
62102;SDS011;48077;48.104;11.702;2023-04-12T01:46:55;48.67;;;45.10;;
62102;SDS011;48077;48.104;11.702;2023-04-12T01:49:19;47.45;;;43.85;;
62102;SDS011;48077;48.104;11.702;2023-04-12T01:51:58;47.67;;;44.15;;
62102;SDS011;48077;48.104;11.702;2023-04-12T01:54:33;48.83;;;45.10;;
62102;SDS011;48077;48.104;11.702;2023-04-12T01:57:03;50.20;;;46.38;;
62102;SDS011;48077;48.104;11.702;2023-04-12T01:59:31;46.72;;;43.15;;
62102;SDS011;48077;48.104;11.702;2023-04-12T02:02:01;45.78;;;42.28;;
62102;SDS011;48077;48.104;11.702;2023-04-12T02:04:25;46.15;;;42.55;;
62102;SDS011;48077;48.104;11.702;2023-04-12T02:06:52;45.55;;;42.05;;
62102;SDS011;48077;48.104;11.702;2023-04-12T02:09:16;47.60;;;44.03;;
62102;SDS011;48077;48.104;11.702;2023-04-12T02:11:39;44.38;;;41.15;;
62102;SDS011;48077;48.104;11.702;2023-04-12T02:14:03;46.45;;;43.08;;
62102;SDS011;48077;48.104;11.702;2023-04-12T02:16:26;45.85;;;42.45;;
62102;SDS011;48077;48.104;11.702;2023-04-12T02:18:54;45.08;;;41.80;;
62102;SDS011;48077;48.104;11.702;2023-04-12T02:21:20;46.22;;;42.78;;
62102;SDS011;48077;48.104;11.702;2023-04-12T02:23:44;47.83;;;44.28;;
62102;SDS011;48077;48.104;11.702;2023-04-12T02:26:08;47.45;;;43.63;;
62102;SDS011;48077;48.104;11.702;2023-04-12T02:28:33;46.88;;;43.25;;
62102;SDS011;48077;48.104;11.702;2023-04-12T02:30:56;43.75;;;40.55;;
62102;SDS011;48077;48.104;11.702;2023-04-12T02:33:20;44.90;;;41.50;;
62102;SDS011;48077;48.104;11.702;2023-04-12T02:35:47;47.50;;;43.75;;
62102;SDS011;48077;48.104;11.702;2023-04-12T02:38:13;44.47;;;41.05;;
62102;SDS011;48077;48.104;11.702;2023-04-12T02:40:39;44.67;;;41.28;;
62102;SDS011;48077;48.104;11.702;2023-04-12T02:43:04;46.20;;;42.67;;
62102;SDS011;48077;48.104;11.702;2023-04-12T02:45:27;45.70;;;42.35;;
62102;SDS011;48077;48.104;11.702;2023-04-12T02:47:50;45.47;;;42.17;;
62102;SDS011;48077;48.104;11.702;2023-04-12T02:50:14;44.80;;;41.53;;
62102;SDS011;48077;48.104;11.702;2023-04-12T02:52:37;47.65;;;44.15;;
62102;SDS011;48077;48.104;11.702;2023-04-12T02:55:00;48.00;;;44.40;;
62102;SDS011;48077;48.104;11.702;2023-04-12T02:57:24;46.03;;;42.65;;
62102;SDS011;48077;48.104;11.702;2023-04-12T02:59:49;47.70;;;44.10;;
62102;SDS011;48077;48.104;11.702;2023-04-12T03:02:15;48.08;;;44.42;;
62102;SDS011;48077;48.104;11.702;2023-04-12T03:04:38;49.38;;;45.50;;
62102;SDS011;48077;48.104;11.702;2023-04-12T03:07:02;45.28;;;41.65;;
62102;SDS011;48077;48.104;11.702;2023-04-12T03:09:28;48.13;;;44.35;;
62102;SDS011;48077;48.104;11.702;2023-04-12T03:11:54;50.45;;;46.35;;
62102;SDS011;48077;48.104;11.702;2023-04-12T03:14:17;47.50;;;43.90;;
62102;SDS011;48077;48.104;11.702;2023-04-12T03:16:40;46.63;;;43.28;;
62102;SDS011;48077;48.104;11.702;2023-04-12T03:19:05;50.88;;;47.03;;
62102;SDS011;48077;48.104;11.702;2023-04-12T03:21:28;45.60;;;42.05;;
62102;SDS011;48077;48.104;11.702;2023-04-12T03:23:53;45.75;;;42.17;;
62102;SDS011;48077;48.104;11.702;2023-04-12T03:26:16;43.38;;;40.17;;
62102;SDS011;48077;48.104;11.702;2023-04-12T03:28:42;44.03;;;40.75;;
62102;SDS011;48077;48.104;11.702;2023-04-12T03:31:07;46.30;;;42.78;;
62102;SDS011;48077;48.104;11.702;2023-04-12T03:33:32;44.38;;;41.00;;
62102;SDS011;48077;48.104;11.702;2023-04-12T03:35:55;44.35;;;41.15;;
62102;SDS011;48077;48.104;11.702;2023-04-12T03:38:19;44.50;;;40.92;;
62102;SDS011;48077;48.104;11.702;2023-04-12T03:40:43;43.22;;;40.05;;
62102;SDS011;48077;48.104;11.702;2023-04-12T03:43:06;45.63;;;42.13;;
62102;SDS011;48077;48.104;11.702;2023-04-12T03:45:29;43.58;;;40.33;;
62102;SDS011;48077;48.104;11.702;2023-04-12T03:47:53;43.13;;;39.90;;
62102;SDS011;48077;48.104;11.702;2023-04-12T03:50:16;44.00;;;40.60;;
62102;SDS011;48077;48.104;11.702;2023-04-12T03:52:40;43.08;;;39.92;;
62102;SDS011;48077;48.104;11.702;2023-04-12T03:55:03;44.38;;;40.72;;
62102;SDS011;48077;48.104;11.702;2023-04-12T03:57:29;44.20;;;40.92;;
62102;SDS011;48077;48.104;11.702;2023-04-12T03:59:57;43.72;;;40.60;;
62102;SDS011;48077;48.104;11.702;2023-04-12T04:02:20;46.08;;;42.65;;
62102;SDS011;48077;48.104;11.702;2023-04-12T04:04:46;45.30;;;41.58;;
62102;SDS011;48077;48.104;11.702;2023-04-12T04:07:10;44.33;;;40.97;;
62102;SDS011;48077;48.104;11.702;2023-04-12T04:09:33;47.90;;;44.20;;
62102;SDS011;48077;48.104;11.702;2023-04-12T04:11:57;44.63;;;41.35;;
62102;SDS011;48077;48.104;11.702;2023-04-12T04:14:20;43.35;;;39.45;;
62102;SDS011;48077;48.104;11.702;2023-04-12T04:16:43;43.55;;;40.28;;
62102;SDS011;48077;48.104;11.702;2023-04-12T04:19:07;45.42;;;41.85;;
62102;SDS011;48077;48.104;11.702;2023-04-12T04:21:30;44.63;;;41.17;;
62102;SDS011;48077;48.104;11.702;2023-04-12T04:24:02;44.13;;;40.85;;
62102;SDS011;48077;48.104;11.702;2023-04-12T04:26:29;46.20;;;42.67;;
62102;SDS011;48077;48.104;11.702;2023-04-12T04:31:18;63.25;;;58.35;;
62102;SDS011;48077;48.104;11.702;2023-04-12T04:33:44;56.60;;;52.15;;
62102;SDS011;48077;48.104;11.702;2023-04-12T04:36:07;51.90;;;47.67;;
62102;SDS011;48077;48.104;11.702;2023-04-12T04:38:31;48.63;;;44.92;;
62102;SDS011;48077;48.104;11.702;2023-04-12T04:40:55;45.88;;;42.53;;
62102;SDS011;48077;48.104;11.702;2023-04-12T04:43:19;43.67;;;40.30;;
62102;SDS011;48077;48.104;11.702;2023-04-12T04:45:42;45.17;;;41.85;;
62102;SDS011;48077;48.104;11.702;2023-04-12T04:48:05;45.08;;;41.47;;
62102;SDS011;48077;48.104;11.702;2023-04-12T04:50:29;41.25;;;38.28;;
62102;SDS011;48077;48.104;11.702;2023-04-12T04:52:53;43.45;;;40.13;;
62102;SDS011;48077;48.104;11.702;2023-04-12T04:55:16;46.00;;;42.35;;
62102;SDS011;48077;48.104;11.702;2023-04-12T04:57:40;46.25;;;42.78;;
62102;SDS011;48077;48.104;11.702;2023-04-12T05:00:03;44.03;;;40.60;;
62102;SDS011;48077;48.104;11.702;2023-04-12T05:02:32;43.67;;;40.33;;
62102;SDS011;48077;48.104;11.702;2023-04-12T05:04:56;44.42;;;41.13;;
62102;SDS011;48077;48.104;11.702;2023-04-12T05:07:21;40.45;;;37.35;;
62102;SDS011;48077;48.104;11.702;2023-04-12T05:09:48;42.60;;;39.33;;
62102;SDS011;48077;48.104;11.702;2023-04-12T05:12:11;42.28;;;38.95;;
62102;SDS011;48077;48.104;11.702;2023-04-12T05:14:34;41.03;;;37.97;;
62102;SDS011;48077;48.104;11.702;2023-04-12T05:16:58;41.83;;;38.65;;
62102;SDS011;48077;48.104;11.702;2023-04-12T05:19:21;44.88;;;41.40;;
62102;SDS011;48077;48.104;11.702;2023-04-12T05:21:44;43.15;;;39.78;;
62102;SDS011;48077;48.104;11.702;2023-04-12T05:24:08;46.42;;;42.60;;
62102;SDS011;48077;48.104;11.702;2023-04-12T05:26:31;46.55;;;42.78;;
62102;SDS011;48077;48.104;11.702;2023-04-12T05:28:56;43.92;;;40.55;;
62102;SDS011;48077;48.104;11.702;2023-04-12T05:31:19;44.03;;;40.53;;
62102;SDS011;48077;48.104;11.702;2023-04-12T05:33:43;41.65;;;38.47;;
62102;SDS011;48077;48.104;11.702;2023-04-12T05:36:11;43.83;;;40.40;;
62102;SDS011;48077;48.104;11.702;2023-04-12T05:38:34;42.33;;;38.95;;
62102;SDS011;48077;48.104;11.702;2023-04-12T05:40:58;42.40;;;39.22;;
62102;SDS011;48077;48.104;11.702;2023-04-12T05:43:21;42.30;;;39.00;;
62102;SDS011;48077;48.104;11.702;2023-04-12T05:45:44;41.65;;;38.50;;
62102;SDS011;48077;48.104;11.702;2023-04-12T05:48:08;42.33;;;38.75;;
62102;SDS011;48077;48.104;11.702;2023-04-12T05:50:34;40.70;;;37.60;;
62102;SDS011;48077;48.104;11.702;2023-04-12T05:52:59;40.45;;;37.47;;
62102;SDS011;48077;48.104;11.702;2023-04-12T05:55:23;40.88;;;37.75;;
62102;SDS011;48077;48.104;11.702;2023-04-12T05:57:49;43.38;;;39.97;;
62102;SDS011;48077;48.104;11.702;2023-04-12T06:00:13;41.17;;;37.78;;
62102;SDS011;48077;48.104;11.702;2023-04-12T06:02:40;40.20;;;37.30;;
62102;SDS011;48077;48.104;11.702;2023-04-12T06:05:04;40.35;;;37.28;;
62102;SDS011;48077;48.104;11.702;2023-04-12T06:07:28;39.45;;;36.42;;
62102;SDS011;48077;48.104;11.702;2023-04-12T06:09:52;38.45;;;35.40;;
62102;SDS011;48077;48.104;11.702;2023-04-12T06:12:15;40.05;;;36.80;;
62102;SDS011;48077;48.104;11.702;2023-04-12T06:14:38;40.83;;;37.63;;
62102;SDS011;48077;48.104;11.702;2023-04-12T06:17:02;39.50;;;36.55;;
62102;SDS011;48077;48.104;11.702;2023-04-12T06:19:25;38.25;;;35.30;;
62102;SDS011;48077;48.104;11.702;2023-04-12T06:21:50;38.80;;;35.67;;
62102;SDS011;48077;48.104;11.702;2023-04-12T06:24:13;40.38;;;36.90;;
62102;SDS011;48077;48.104;11.702;2023-04-12T06:26:36;39.35;;;36.13;;
62102;SDS011;48077;48.104;11.702;2023-04-12T06:29:00;40.85;;;37.55;;
62102;SDS011;48077;48.104;11.702;2023-04-12T06:31:23;37.65;;;34.40;;
62102;SDS011;48077;48.104;11.702;2023-04-12T06:33:47;37.78;;;34.67;;
62102;SDS011;48077;48.104;11.702;2023-04-12T06:36:10;36.95;;;34.13;;
62102;SDS011;48077;48.104;11.702;2023-04-12T06:38:34;37.53;;;34.67;;
62102;SDS011;48077;48.104;11.702;2023-04-12T06:40:57;35.85;;;33.00;;
62102;SDS011;48077;48.104;11.702;2023-04-12T06:43:21;38.90;;;35.88;;
62102;SDS011;48077;48.104;11.702;2023-04-12T06:45:44;38.03;;;35.00;;
62102;SDS011;48077;48.104;11.702;2023-04-12T06:48:08;36.65;;;33.63;;
62102;SDS011;48077;48.104;11.702;2023-04-12T06:50:31;34.13;;;31.48;;
62102;SDS011;48077;48.104;11.702;2023-04-12T06:52:55;32.72;;;30.10;;
62102;SDS011;48077;48.104;11.702;2023-04-12T06:55:18;36.90;;;33.58;;
62102;SDS011;48077;48.104;11.702;2023-04-12T06:57:42;33.42;;;30.75;;
62102;SDS011;48077;48.104;11.702;2023-04-12T07:00:06;34.72;;;31.25;;
62102;SDS011;48077;48.104;11.702;2023-04-12T07:02:30;33.55;;;30.58;;
62102;SDS011;48077;48.104;11.702;2023-04-12T07:04:54;31.05;;;28.23;;
62102;SDS011;48077;48.104;11.702;2023-04-12T07:07:17;30.30;;;27.83;;
62102;SDS011;48077;48.104;11.702;2023-04-12T07:09:43;32.20;;;29.65;;
62102;SDS011;48077;48.104;11.702;2023-04-12T07:12:06;31.23;;;28.35;;
62102;SDS011;48077;48.104;11.702;2023-04-12T07:14:30;29.30;;;26.85;;
62102;SDS011;48077;48.104;11.702;2023-04-12T07:16:53;31.73;;;29.23;;
62102;SDS011;48077;48.104;11.702;2023-04-12T07:19:16;31.35;;;28.70;;
62102;SDS011;48077;48.104;11.702;2023-04-12T07:21:40;28.45;;;26.35;;
62102;SDS011;48077;48.104;11.702;2023-04-12T07:24:03;29.58;;;26.95;;
62102;SDS011;48077;48.104;11.702;2023-04-12T07:26:27;29.00;;;26.55;;
62102;SDS011;48077;48.104;11.702;2023-04-12T07:28:50;28.52;;;26.00;;
62102;SDS011;48077;48.104;11.702;2023-04-12T07:31:13;28.42;;;26.13;;
62102;SDS011;48077;48.104;11.702;2023-04-12T07:33:37;30.95;;;28.45;;
62102;SDS011;48077;48.104;11.702;2023-04-12T07:36:00;27.92;;;25.42;;
62102;SDS011;48077;48.104;11.702;2023-04-12T07:38:24;26.48;;;24.35;;
62102;SDS011;48077;48.104;11.702;2023-04-12T07:40:47;27.35;;;25.10;;
62102;SDS011;48077;48.104;11.702;2023-04-12T07:43:11;27.45;;;24.90;;
62102;SDS011;48077;48.104;11.702;2023-04-12T07:45:37;24.38;;;22.55;;
62102;SDS011;48077;48.104;11.702;2023-04-12T07:48:01;24.85;;;22.90;;
62102;SDS011;48077;48.104;11.702;2023-04-12T07:50:25;23.83;;;21.98;;
62102;SDS011;48077;48.104;11.702;2023-04-12T07:52:48;22.88;;;21.02;;
62102;SDS011;48077;48.104;11.702;2023-04-12T07:55:12;24.45;;;22.20;;
62102;SDS011;48077;48.104;11.702;2023-04-12T07:57:36;24.00;;;21.95;;
62102;SDS011;48077;48.104;11.702;2023-04-12T07:59:59;24.33;;;22.10;;
62102;SDS011;48077;48.104;11.702;2023-04-12T08:02:27;24.03;;;21.73;;
62102;SDS011;48077;48.104;11.702;2023-04-12T08:04:51;22.92;;;20.98;;
62102;SDS011;48077;48.104;11.702;2023-04-12T08:07:15;22.75;;;20.88;;
62102;SDS011;48077;48.104;11.702;2023-04-12T08:09:38;19.83;;;18.33;;
62102;SDS011;48077;48.104;11.702;2023-04-12T08:12:02;20.13;;;18.48;;
62102;SDS011;48077;48.104;11.702;2023-04-12T08:14:25;21.65;;;19.67;;
62102;SDS011;48077;48.104;11.702;2023-04-12T08:16:49;19.42;;;17.85;;
62102;SDS011;48077;48.104;11.702;2023-04-12T08:19:12;19.42;;;17.67;;
62102;SDS011;48077;48.104;11.702;2023-04-12T08:21:36;20.05;;;18.35;;
62102;SDS011;48077;48.104;11.702;2023-04-12T08:23:59;18.50;;;16.90;;
62102;SDS011;48077;48.104;11.702;2023-04-12T08:26:23;17.65;;;16.27;;
62102;SDS011;48077;48.104;11.702;2023-04-12T08:28:48;18.13;;;16.45;;
62102;SDS011;48077;48.104;11.702;2023-04-12T08:31:11;21.52;;;19.17;;
62102;SDS011;48077;48.104;11.702;2023-04-12T08:33:35;18.23;;;16.48;;
62102;SDS011;48077;48.104;11.702;2023-04-12T08:35:58;16.52;;;15.07;;
62102;SDS011;48077;48.104;11.702;2023-04-12T08:38:21;17.10;;;15.50;;
62102;SDS011;48077;48.104;11.702;2023-04-12T08:40:45;15.65;;;14.15;;
62102;SDS011;48077;48.104;11.702;2023-04-12T08:43:09;14.90;;;13.68;;
62102;SDS011;48077;48.104;11.702;2023-04-12T08:45:34;14.63;;;13.20;;
62102;SDS011;48077;48.104;11.702;2023-04-12T08:47:58;15.80;;;14.25;;
62102;SDS011;48077;48.104;11.702;2023-04-12T08:50:23;14.52;;;13.35;;
62102;SDS011;48077;48.104;11.702;2023-04-12T08:52:48;14.77;;;13.38;;
62102;SDS011;48077;48.104;11.702;2023-04-12T08:55:12;17.85;;;14.40;;
62102;SDS011;48077;48.104;11.702;2023-04-12T08:57:37;13.68;;;12.45;;
62102;SDS011;48077;48.104;11.702;2023-04-12T09:00:03;15.00;;;13.57;;
62102;SDS011;48077;48.104;11.702;2023-04-12T09:02:30;16.48;;;14.98;;
62102;SDS011;48077;48.104;11.702;2023-04-12T09:04:54;14.68;;;13.25;;
62102;SDS011;48077;48.104;11.702;2023-04-12T09:07:20;14.93;;;13.55;;
62102;SDS011;48077;48.104;11.702;2023-04-12T09:09:45;15.68;;;14.25;;
62102;SDS011;48077;48.104;11.702;2023-04-12T09:12:10;14.88;;;13.52;;
62102;SDS011;48077;48.104;11.702;2023-04-12T09:14:34;14.82;;;13.38;;
62102;SDS011;48077;48.104;11.702;2023-04-12T09:16:57;13.43;;;11.20;;
62102;SDS011;48077;48.104;11.702;2023-04-12T09:19:33;15.95;;;12.88;;
62102;SDS011;48077;48.104;11.702;2023-04-12T09:21:58;14.20;;;12.82;;
62102;SDS011;48077;48.104;11.702;2023-04-12T09:24:22;16.33;;;12.45;;
62102;SDS011;48077;48.104;11.702;2023-04-12T09:26:46;11.82;;;10.63;;
62102;SDS011;48077;48.104;11.702;2023-04-12T09:29:22;13.23;;;12.10;;
62102;SDS011;48077;48.104;11.702;2023-04-12T09:31:59;17.10;;;12.80;;
62102;SDS011;48077;48.104;11.702;2023-04-12T09:34:24;13.95;;;12.65;;
62102;SDS011;48077;48.104;11.702;2023-04-12T09:36:47;10.75;;;9.50;;
62102;SDS011;48077;48.104;11.702;2023-04-12T09:39:10;10.43;;;9.48;;
62102;SDS011;48077;48.104;11.702;2023-04-12T09:41:34;10.85;;;9.23;;
62102;SDS011;48077;48.104;11.702;2023-04-12T09:43:58;10.45;;;9.48;;
62102;SDS011;48077;48.104;11.702;2023-04-12T09:46:24;11.82;;;10.35;;
62102;SDS011;48077;48.104;11.702;2023-04-12T09:48:51;9.02;;;7.90;;
62102;SDS011;48077;48.104;11.702;2023-04-12T09:51:22;6.47;;;4.93;;
62102;SDS011;48077;48.104;11.702;2023-04-12T09:56:22;6.00;;;4.97;;
62102;SDS011;48077;48.104;11.702;2023-04-12T09:58:46;6.40;;;5.53;;
62102;SDS011;48077;48.104;11.702;2023-04-12T10:01:13;6.20;;;5.60;;
62102;SDS011;48077;48.104;11.702;2023-04-12T10:03:38;4.90;;;4.47;;
62102;SDS011;48077;48.104;11.702;2023-04-12T10:06:04;5.50;;;4.47;;
62102;SDS011;48077;48.104;11.702;2023-04-12T10:08:28;4.93;;;4.47;;
62102;SDS011;48077;48.104;11.702;2023-04-12T10:10:52;5.18;;;4.38;;
62102;SDS011;48077;48.104;11.702;2023-04-12T10:13:17;5.45;;;4.30;;
62102;SDS011;48077;48.104;11.702;2023-04-12T10:15:41;4.88;;;3.75;;
62102;SDS011;48077;48.104;11.702;2023-04-12T10:18:07;6.65;;;5.25;;
62102;SDS011;48077;48.104;11.702;2023-04-12T10:20:33;7.03;;;4.97;;
62102;SDS011;48077;48.104;11.702;2023-04-12T10:22:57;6.18;;;3.40;;
62102;SDS011;48077;48.104;11.702;2023-04-12T10:25:24;5.90;;;4.03;;
62102;SDS011;48077;48.104;11.702;2023-04-12T10:27:49;3.90;;;2.35;;
62102;SDS011;48077;48.104;11.702;2023-04-12T10:30:28;4.25;;;3.83;;
62102;SDS011;48077;48.104;11.702;2023-04-12T10:35:47;5.30;;;3.88;;
62102;SDS011;48077;48.104;11.702;2023-04-12T10:38:16;5.88;;;3.17;;
62102;SDS011;48077;48.104;11.702;2023-04-12T10:43:39;3.10;;;2.40;;
62102;SDS011;48077;48.104;11.702;2023-04-12T10:49:06;4.65;;;2.72;;
62102;SDS011;48077;48.104;11.702;2023-04-12T10:51:33;2.65;;;2.15;;
62102;SDS011;48077;48.104;11.702;2023-04-12T10:58:53;3.85;;;2.30;;
62102;SDS011;48077;48.104;11.702;2023-04-12T11:01:17;6.38;;;3.08;;
62102;SDS011;48077;48.104;11.702;2023-04-12T11:09:28;3.72;;;1.90;;
62102;SDS011;48077;48.104;11.702;2023-04-12T11:14:30;1.83;;;1.50;;
62102;SDS011;48077;48.104;11.702;2023-04-12T11:19:29;4.20;;;1.67;;
62102;SDS011;48077;48.104;11.702;2023-04-12T11:21:54;3.33;;;1.55;;
62102;SDS011;48077;48.104;11.702;2023-04-12T11:24:17;7.18;;;2.17;;
62102;SDS011;48077;48.104;11.702;2023-04-12T11:26:41;3.30;;;1.50;;
62102;SDS011;48077;48.104;11.702;2023-04-12T11:29:06;3.85;;;1.75;;
62102;SDS011;48077;48.104;11.702;2023-04-12T11:31:30;2.47;;;1.48;;
62102;SDS011;48077;48.104;11.702;2023-04-12T11:33:53;3.70;;;1.77;;
62102;SDS011;48077;48.104;11.702;2023-04-12T11:36:18;5.38;;;2.38;;
62102;SDS011;48077;48.104;11.702;2023-04-12T11:38:45;5.45;;;1.77;;
62102;SDS011;48077;48.104;11.702;2023-04-12T11:41:09;3.85;;;1.52;;
62102;SDS011;48077;48.104;11.702;2023-04-12T11:43:33;4.28;;;1.80;;
62102;SDS011;48077;48.104;11.702;2023-04-12T11:45:58;3.88;;;1.48;;
62102;SDS011;48077;48.104;11.702;2023-04-12T11:48:25;4.03;;;1.30;;
62102;SDS011;48077;48.104;11.702;2023-04-12T11:50:49;2.55;;;1.15;;
62102;SDS011;48077;48.104;11.702;2023-04-12T11:53:12;4.65;;;1.73;;
62102;SDS011;48077;48.104;11.702;2023-04-12T11:55:39;2.33;;;1.17;;
62102;SDS011;48077;48.104;11.702;2023-04-12T11:58:03;5.03;;;1.58;;
62102;SDS011;48077;48.104;11.702;2023-04-12T12:00:26;2.25;;;1.30;;
62102;SDS011;48077;48.104;11.702;2023-04-12T12:02:52;3.53;;;1.77;;
62102;SDS011;48077;48.104;11.702;2023-04-12T12:05:15;3.25;;;1.60;;
62102;SDS011;48077;48.104;11.702;2023-04-12T12:07:39;3.65;;;1.45;;
62102;SDS011;48077;48.104;11.702;2023-04-12T12:10:03;5.15;;;1.73;;
62102;SDS011;48077;48.104;11.702;2023-04-12T12:12:27;2.67;;;1.38;;
62102;SDS011;48077;48.104;11.702;2023-04-12T12:14:50;2.80;;;1.77;;
62102;SDS011;48077;48.104;11.702;2023-04-12T12:17:14;4.47;;;2.13;;
62102;SDS011;48077;48.104;11.702;2023-04-12T12:19:39;2.90;;;1.70;;
62102;SDS011;48077;48.104;11.702;2023-04-12T12:22:11;3.45;;;1.60;;
62102;SDS011;48077;48.104;11.702;2023-04-12T12:24:38;2.67;;;1.45;;
62102;SDS011;48077;48.104;11.702;2023-04-12T12:27:06;3.97;;;1.90;;
62102;SDS011;48077;48.104;11.702;2023-04-12T12:29:33;4.53;;;2.10;;
62102;SDS011;48077;48.104;11.702;2023-04-12T12:31:59;5.78;;;2.42;;
62102;SDS011;48077;48.104;11.702;2023-04-12T12:34:23;3.15;;;1.52;;
62102;SDS011;48077;48.104;11.702;2023-04-12T12:36:53;4.47;;;1.77;;
62102;SDS011;48077;48.104;11.702;2023-04-12T12:39:18;6.38;;;2.03;;
62102;SDS011;48077;48.104;11.702;2023-04-12T12:41:41;1.73;;;1.17;;
62102;SDS011;48077;48.104;11.702;2023-04-12T12:44:07;5.05;;;1.85;;
62102;SDS011;48077;48.104;11.702;2023-04-12T12:46:33;2.58;;;1.20;;
62102;SDS011;48077;48.104;11.702;2023-04-12T12:48:56;3.70;;;1.70;;
62102;SDS011;48077;48.104;11.702;2023-04-12T12:51:20;6.35;;;2.00;;
62102;SDS011;48077;48.104;11.702;2023-04-12T12:53:48;3.70;;;1.58;;
62102;SDS011;48077;48.104;11.702;2023-04-12T12:56:12;5.28;;;1.88;;
62102;SDS011;48077;48.104;11.702;2023-04-12T12:58:39;3.90;;;1.52;;
62102;SDS011;48077;48.104;11.702;2023-04-12T13:01:10;8.32;;;2.85;;
62102;SDS011;48077;48.104;11.702;2023-04-12T13:03:33;3.58;;;1.83;;
62102;SDS011;48077;48.104;11.702;2023-04-12T13:05:57;3.13;;;1.40;;
62102;SDS011;48077;48.104;11.702;2023-04-12T13:08:21;17.55;;;5.18;;
62102;SDS011;48077;48.104;11.702;2023-04-12T13:10:48;2.60;;;1.23;;
62102;SDS011;48077;48.104;11.702;2023-04-12T13:13:14;10.00;;;3.35;;
62102;SDS011;48077;48.104;11.702;2023-04-12T13:15:37;4.97;;;1.55;;
62102;SDS011;48077;48.104;11.702;2023-04-12T13:18:01;2.38;;;1.20;;
62102;SDS011;48077;48.104;11.702;2023-04-12T13:20:29;2.55;;;1.77;;
62102;SDS011;48077;48.104;11.702;2023-04-12T13:22:52;2.30;;;1.00;;
62102;SDS011;48077;48.104;11.702;2023-04-12T13:25:16;8.85;;;2.75;;
62102;SDS011;48077;48.104;11.702;2023-04-12T13:27:41;4.07;;;1.10;;
62102;SDS011;48077;48.104;11.702;2023-04-12T13:30:05;1.77;;;1.23;;
62102;SDS011;48077;48.104;11.702;2023-04-12T13:32:29;2.40;;;1.10;;
62102;SDS011;48077;48.104;11.702;2023-04-12T13:34:52;2.17;;;1.10;;
62102;SDS011;48077;48.104;11.702;2023-04-12T13:37:15;4.38;;;1.50;;
62102;SDS011;48077;48.104;11.702;2023-04-12T13:39:39;2.55;;;1.20;;
62102;SDS011;48077;48.104;11.702;2023-04-12T13:42:02;2.10;;;1.00;;
62102;SDS011;48077;48.104;11.702;2023-04-12T13:44:26;2.10;;;1.42;;
62102;SDS011;48077;48.104;11.702;2023-04-12T13:46:51;2.63;;;1.20;;
62102;SDS011;48077;48.104;11.702;2023-04-12T13:49:15;5.22;;;1.75;;
62102;SDS011;48077;48.104;11.702;2023-04-12T13:51:38;2.15;;;1.10;;
62102;SDS011;48077;48.104;11.702;2023-04-12T13:54:01;2.15;;;1.33;;
62102;SDS011;48077;48.104;11.702;2023-04-12T13:56:25;3.08;;;1.25;;
62102;SDS011;48077;48.104;11.702;2023-04-12T13:58:48;1.90;;;1.38;;
62102;SDS011;48077;48.104;11.702;2023-04-12T14:01:16;3.00;;;1.38;;
62102;SDS011;48077;48.104;11.702;2023-04-12T14:03:40;2.05;;;1.10;;
62102;SDS011;48077;48.104;11.702;2023-04-12T14:06:03;4.90;;;1.35;;
62102;SDS011;48077;48.104;11.702;2023-04-12T14:08:28;3.15;;;1.27;;
62102;SDS011;48077;48.104;11.702;2023-04-12T14:10:53;3.53;;;1.67;;
62102;SDS011;48077;48.104;11.702;2023-04-12T14:13:17;4.28;;;1.90;;
62102;SDS011;48077;48.104;11.702;2023-04-12T14:15:41;3.50;;;1.75;;
62102;SDS011;48077;48.104;11.702;2023-04-12T14:18:04;3.45;;;1.63;;
62102;SDS011;48077;48.104;11.702;2023-04-12T14:20:27;3.28;;;1.92;;
62102;SDS011;48077;48.104;11.702;2023-04-12T14:22:51;1.48;;;1.10;;
62102;SDS011;48077;48.104;11.702;2023-04-12T14:25:14;4.25;;;1.85;;
62102;SDS011;48077;48.104;11.702;2023-04-12T14:27:38;2.05;;;1.20;;
62102;SDS011;48077;48.104;11.702;2023-04-12T14:30:01;2.10;;;1.58;;
62102;SDS011;48077;48.104;11.702;2023-04-12T14:32:28;3.78;;;1.40;;
62102;SDS011;48077;48.104;11.702;2023-04-12T14:34:51;2.63;;;1.30;;
62102;SDS011;48077;48.104;11.702;2023-04-12T14:37:15;6.05;;;2.55;;
62102;SDS011;48077;48.104;11.702;2023-04-12T14:39:38;4.38;;;1.63;;
62102;SDS011;48077;48.104;11.702;2023-04-12T14:42:02;3.85;;;1.30;;
62102;SDS011;48077;48.104;11.702;2023-04-12T14:44:25;3.08;;;1.08;;
62102;SDS011;48077;48.104;11.702;2023-04-12T14:46:49;1.73;;;1.20;;